Terminal Aerodrome Forecast
Issued by NWS

Home | Current Version | Previous Version | Text Only | Print | Product List | Glossary On
Versions: 1 2 3 4 5 6 7 8 9 10 11 12 13 14 15 16
671
FTUS42 KTBW 192330
TAFPIE
TAF
KPIE 192330Z 2000/2024 35012G17KT P6SM SCT015
     FM200300 02014G20KT P6SM FEW250
     FM201100 04013G18KT P6SM SKC
     FM201800 08010KT P6SM FEW250=

USA.gov is the U.S. government's official web portal to all federal, state and local government web resources and services.